Time;durP1;ratioP1;P1;durP2;ratioP2;P2;SDS_P1;SDS_P2;PMS_P1;PMS_P2;Temp;Humidity;BMP_temperature;BMP_pressure;BME280_temperature;BME280_humidity;BME280_pressure;Samples;Min_cycle;Max_cycle;Signal;HPM_P1;HPM_P2
2023/06/21 00:00:56;;;;;;;2.55;1.48;;;;;;;;;;20998880;28;20223;-84
2023/06/21 00:10:57;;;;;;;1.85;1.23;;;;;;;;;;20998736;28;20274;-84
2023/06/21 00:20:59;;;;;;;2.25;1.45;;;;;;;;;;20969959;28;20955;-84
2023/06/21 00:31:01;;;;;;;2.88;1.60;;;;;;;;;;20995829;28;20269;-84
2023/06/21 00:41:07;;;;;;;3.35;1.90;;;;;;;;;;20994835;28;20231;-84
2023/06/21 00:51:13;;;;;;;3.00;1.52;;;;;;;;;;20982557;28;20244;-83
2023/06/21 01:01:15;;;;;;;3.22;1.70;;;;;;;;;;20986952;28;20333;-84
2023/06/21 01:11:17;;;;;;;4.45;1.98;;;;;;;;;;20943231;28;20775;-83
2023/06/21 01:21:23;;;;;;;2.42;1.85;;;26.10;99.90;;;;;;21007242;28;20222;-84
2023/06/21 01:31:25;;;;;;;4.07;1.80;;;25.90;99.90;;;;;;20971148;28;20246;-84
2023/06/21 01:41:28;;;;;;;2.75;1.77;;;;;;;;;;20940345;28;20278;-84
2023/06/21 01:51:30;;;;;;;3.47;1.95;;;26.50;99.90;;;;;;20940083;28;20290;-84
2023/06/21 02:01:33;;;;;;;4.15;1.75;;;25.60;99.90;;;;;;20989867;28;20231;-84
2023/06/21 02:11:35;;;;;;;3.50;1.90;;;24.50;99.90;;;;;;20988806;28;20235;-84
2023/06/21 02:21:38;;;;;;;4.03;1.73;;;;;;;;;;20955824;28;20231;-84
2023/06/21 02:31:42;;;;;;;2.17;1.63;;;;;;;;;;20955513;28;20273;-84
2023/06/21 02:41:43;;;;;;;4.85;2.13;;;;;;;;;;20940139;28;20228;-85
2023/06/21 02:51:49;;;;;;;3.45;1.92;;;25.10;99.90;;;;;;20972057;28;20221;-85
2023/06/21 03:01:51;;;;;;;3.22;2.15;;;;;;;;;;20955515;28;20284;-84
2023/06/21 03:11:53;;;;;;;4.15;1.65;;;;;;;;;;20972465;28;20250;-83
2023/06/21 03:21:55;;;;;;;3.60;2.00;;;;;;;;;;20939536;28;20223;-81
2023/06/21 03:31:57;;;;;;;3.58;1.70;;;;;;;;;;20963226;28;20263;-81
2023/06/21 03:41:59;;;;;;;2.55;1.85;;;;;;;;;;20983828;28;20296;-81
2023/06/21 03:52:01;;;;;;;3.15;2.22;;;;;;;;;;20983944;28;20227;-83
2023/06/21 04:02:03;;;;;;;3.15;1.80;;;;;;;;;;20968392;28;20218;-81
2023/06/21 04:12:06;;;;;;;2.80;1.80;;;;;;;;;;20967331;28;20232;-83
2023/06/21 04:22:08;;;;;;;2.35;1.60;;;;;;;;;;20935087;28;20674;-82
2023/06/21 04:32:10;;;;;;;3.08;1.65;;;;;;;;;;20965493;28;20267;-81
2023/06/21 04:42:12;;;;;;;2.88;1.63;;;;;;;;;;20951992;28;20225;-82
2023/06/21 04:52:13;;;;;;;3.13;1.77;;;;;;;;;;20948906;28;20267;-82
2023/06/21 05:02:16;;;;;;;5.68;1.88;;;;;;;;;;20968092;28;20214;-81
2023/06/21 05:12:17;;;;;;;3.00;1.67;;;;;;;;;;20958831;28;20307;-81
2023/06/21 05:22:19;;;;;;;2.35;1.55;;;;;;;;;;20985617;28;20222;-81
2023/06/21 05:32:24;;;;;;;3.03;1.77;;;;;;;;;;20947274;28;20295;-81
2023/06/21 05:42:25;;;;;;;2.72;1.73;;;;;;;;;;20958244;28;20280;-81
2023/06/21 05:52:27;;;;;;;2.65;1.92;;;;;;;;;;20951344;28;20710;-82
2023/06/21 06:02:29;;;;;;;4.07;1.80;;;;;;;;;;20960470;28;20230;-82
2023/06/21 06:12:30;;;;;;;1.65;1.30;;;24.90;99.90;;;;;;20966851;28;20657;-81
2023/06/21 06:22:34;;;;;;;4.28;1.50;;;;;;;;;;20972344;28;20227;-81
2023/06/21 06:32:35;;;;;;;2.05;1.40;;;;;;;;;;20926974;28;20277;-80
2023/06/21 06:42:37;;;;;;;1.80;1.35;;;;;;;;;;20989711;28;20261;-83
2023/06/21 06:52:39;;;;;;;2.20;1.27;;;;;;;;;;20971246;28;20297;-84
2023/06/21 07:02:40;;;;;;;1.95;1.23;;;;;;;;;;20962557;28;20211;-84
2023/06/21 07:12:42;;;;;;;2.60;1.33;;;24.80;99.90;;;;;;20950735;28;20234;-83
2023/06/21 07:22:44;;;;;;;2.90;1.40;;;;;;;;;;20956045;28;20764;-84
2023/06/21 07:32:47;;;;;;;2.30;1.27;;;;;;;;;;20972365;28;20236;-85
2023/06/21 07:42:49;;;;;;;2.08;1.33;;;;;;;;;;20973017;28;20233;-83
2023/06/21 07:52:51;;;;;;;2.80;1.50;;;;;;;;;;20956340;28;20602;-85
2023/06/21 08:02:53;;;;;;;1.70;1.10;;;;;;;;;;20972509;28;20229;-85
2023/06/21 08:12:55;;;;;;;2.08;1.27;;;;;;;;;;20954636;28;20227;-84
2023/06/21 08:22:57;;;;;;;2.03;1.20;;;;;;;;;;20964511;28;20224;-84
2023/06/21 08:32:58;;;;;;;1.80;1.25;;;;;;;;;;20998261;28;20246;-87
2023/06/21 08:43:00;;;;;;;2.75;1.10;;;26.70;99.90;;;;;;20986155;28;20720;-83
2023/06/21 08:53:07;;;;;;;1.90;1.35;;;;;;;;;;20983814;28;20266;-84
2023/06/21 09:03:36;;;;;;;2.47;1.40;;;26.40;99.90;;;;;;20953504;28;20289;-85
2023/06/21 09:13:38;;;;;;;2.28;1.48;;;;;;;;;;20974692;28;20212;-83
2023/06/21 09:23:40;;;;;;;1.50;1.10;;;25.80;99.90;;;;;;20983029;28;20266;-84
2023/06/21 09:33:43;;;;;;;2.03;1.33;;;;;;;;;;20962310;28;20281;-84
2023/06/21 09:43:45;;;;;;;3.38;1.63;;;;;;;;;;20983057;28;20215;-84
2023/06/21 09:53:47;;;;;;;1.95;1.35;;;;;;;;;;21012422;28;20301;-83
2023/06/21 10:03:49;;;;;;;1.55;1.20;;;;;;;;;;20963343;28;20235;-83
2023/06/21 10:13:54;;;;;;;2.42;1.63;;;;;;;;;;21001801;28;20273;-85
2023/06/21 10:23:57;;;;;;;3.03;1.45;;;;;;;;;;20995967;28;20228;-84
2023/06/21 10:34:00;;;;;;;2.42;1.40;;;;;;;;;;20960951;28;20246;-84
2023/06/21 10:44:03;;;;;;;2.17;1.45;;;;;;;;;;20999559;28;20634;-84
2023/06/21 10:54:05;;;;;;;2.67;1.63;;;;;;;;;;20975370;28;20276;-85
2023/06/21 11:04:07;;;;;;;1.88;1.30;;;;;;;;;;20986343;28;20287;-85
2023/06/21 11:14:09;;;;;;;1.75;1.20;;;;;;;;;;20966889;28;20230;-84
2023/06/21 11:24:18;;;;;;;2.08;1.55;;;;;;;;;;20984868;28;20260;-85
2023/06/21 11:34:24;;;;;;;2.08;1.40;;;;;;;;;;20972600;28;20796;-85
2023/06/21 11:44:27;;;;;;;3.10;1.65;;;;;;;;;;20975869;28;20236;-85
2023/06/21 11:54:30;;;;;;;2.50;1.40;;;;;;;;;;20857073;23;20323;-71
2023/06/21 12:04:32;;;;;;;3.53;1.48;;;;;;;;;;20875364;28;20282;-72
2023/06/21 12:14:35;;;;;;;2.00;1.40;;;;;;;;;;20851709;28;20287;-73
2023/06/21 12:24:37;;;;;;;1.60;1.17;;;;;;;;;;20864270;28;20212;-71
2023/06/21 12:34:39;;;;;;;1.88;1.23;;;;;;;;;;20823244;28;20221;-73
2023/06/21 12:44:42;;;;;;;2.72;1.45;;;;;;;;;;20857563;28;20244;-73
2023/06/21 12:54:56;;;;;;;2.15;1.48;;;29.40;99.90;;;;;;20857164;28;20221;-70
2023/06/21 13:04:58;;;;;;;1.90;1.42;;;;;;;;;;20855100;28;20243;-71
2023/06/21 13:15:00;;;;;;;1.88;1.45;;;;;;;;;;20836705;28;20283;-71
2023/06/21 13:25:02;;;;;;;1.98;1.30;;;;;;;;;;20839258;23;20234;-67
2023/06/21 13:35:08;;;;;;;1.98;1.23;;;;;;;;;;20990686;28;20220;-67
2023/06/21 13:45:10;;;;;;;1.80;1.30;;;;;;;;;;21033797;28;20216;-67
2023/06/21 13:55:18;;;;;;;1.50;1.08;;;;;;;;;;21008141;28;20558;-70
2023/06/21 14:05:23;;;;;;;3.20;1.33;;;30.20;99.90;;;;;;21007829;28;20212;-69
2023/06/21 14:15:25;;;;;;;2.10;1.40;;;;;;;;;;21045105;28;20277;-67
2023/06/21 14:25:27;;;;;;;2.38;1.30;;;;;;;;;;20993843;28;20229;-69
2023/06/21 14:35:31;;;;;;;1.60;1.20;;;;;;;;;;21025245;28;20220;-69
2023/06/21 14:45:33;;;;;;;1.80;1.20;;;;;;;;;;21031077;28;20208;-70
2023/06/21 14:55:35;;;;;;;1.88;1.30;;;;;;;;;;21015291;28;20770;-69
2023/06/21 15:05:36;;;;;;;1.77;1.30;;;;;;;;;;21031376;28;20684;-70
2023/06/21 15:15:39;;;;;;;2.15;1.23;;;;;;;;;;21031102;28;20225;-69
2023/06/21 15:25:40;;;;;;;2.72;1.58;;;;;;;;;;21012532;28;20274;-69
2023/06/21 15:35:42;;;;;;;2.67;1.52;;;;;;;;;;20955447;28;20228;-69
2023/06/21 15:45:44;;;;;;;2.00;1.20;;;;;;;;;;21038166;28;20209;-70
2023/06/21 15:55:46;;;;;;;1.88;1.20;;;;;;;;;;21017863;28;20573;-71
2023/06/21 16:05:50;;;;;;;1.75;1.25;;;;;;;;;;21005230;28;20562;-70
2023/06/21 16:15:52;;;;;;;1.80;1.38;;;;;;;;;;21026873;28;20801;-70
2023/06/21 16:25:53;;;;;;;1.67;1.15;;;;;;;;;;20987349;28;20232;-69
2023/06/21 16:35:56;;;;;;;2.55;1.13;;;;;;;;;;21037318;28;20295;-70
2023/06/21 16:45:58;;;;;;;1.48;1.08;;;;;;;;;;20992139;28;20261;-70
2023/06/21 16:56:00;;;;;;;2.28;1.30;;;;;;;;;;21030541;28;20270;-70
2023/06/21 17:06:02;;;;;;;2.08;1.13;;;;;;;;;;20996249;28;20259;-71
2023/06/21 17:16:04;;;;;;;2.10;1.60;;;;;;;;;;21028754;28;20236;-70
2023/06/21 17:26:06;;;;;;;1.88;1.15;;;;;;;;;;21005901;28;20220;-69
2023/06/21 17:36:08;;;;;;;1.63;1.05;;;;;;;;;;21005351;28;20286;-70
2023/06/21 17:46:10;;;;;;;1.95;1.23;;;;;;;;;;20998182;28;20286;-70
2023/06/21 17:56:11;;;;;;;3.05;1.30;;;;;;;;;;20999905;28;20228;-70
2023/06/21 18:06:13;;;;;;;1.30;0.90;;;;;;;;;;21004538;28;20238;-70
2023/06/21 18:16:15;;;;;;;2.17;1.40;;;;;;;;;;20987060;28;20727;-70
2023/06/21 18:26:17;;;;;;;1.38;0.95;;;;;;;;;;20990529;28;20677;-70
2023/06/21 18:36:19;;;;;;;1.90;1.50;;;;;;;;;;20991210;28;20288;-70
2023/06/21 18:46:22;;;;;;;2.25;1.10;;;;;;;;;;21019650;28;20639;-69
2023/06/21 18:56:24;;;;;;;1.65;1.30;;;;;;;;;;20998399;28;20216;-70
2023/06/21 19:06:28;;;;;;;1.92;1.30;;;;;;;;;;20979988;28;20265;-70
2023/06/21 19:16:31;;;;;;;1.92;1.27;;;;;;;;;;21046992;28;20252;-69
2023/06/21 19:26:39;;;;;;;1.73;1.27;;;;;;;;;;20942041;23;20222;-74
2023/06/21 19:36:44;;;;;;;1.52;1.15;;;;;;;;;;20820564;28;20225;-73
2023/06/21 19:46:46;;;;;;;1.70;0.93;;;;;;;;;;20803874;28;20490;-73
2023/06/21 19:56:48;;;;;;;1.80;1.10;;;;;;;;;;20822063;28;20238;-74
2023/06/21 20:06:50;;;;;;;1.63;1.15;;;;;;;;;;20799273;28;20598;-74
2023/06/21 20:16:52;;;;;;;1.95;1.17;;;;;;;;;;20819428;28;20237;-74
2023/06/21 20:26:54;;;;;;;2.30;1.20;;;;;;;;;;20800424;28;20641;-73
2023/06/21 20:36:56;;;;;;;1.88;1.10;;;;;;;;;;20812709;28;20311;-73
2023/06/21 20:46:58;;;;;;;2.58;1.20;;;;;;;;;;20817124;28;20214;-73
2023/06/21 20:57:00;;;;;;;1.30;1.05;;;;;;;;;;20817464;28;20788;-73
2023/06/21 21:07:01;;;;;;;1.90;1.17;;;;;;;;;;20818673;28;20256;-74
2023/06/21 21:17:03;;;;;;;1.60;0.95;;;;;;;;;;20783764;28;20775;-74
2023/06/21 21:27:05;;;;;;;2.38;1.20;;;;;;;;;;20803947;28;20300;-74
2023/06/21 21:37:06;;;;;;;2.25;1.50;;;;;;;;;;20819080;28;20278;-73
2023/06/21 21:47:08;;;;;;;2.83;1.60;;;;;;;;;;20781401;28;20225;-73
2023/06/21 21:57:10;;;;;;;2.65;1.73;;;;;;;;;;20817263;28;20703;-74
2023/06/21 22:07:12;;;;;;;1.60;1.20;;;;;;;;;;20816134;28;20214;-74
2023/06/21 22:17:14;;;;;;;1.95;1.30;;;;;;;;;;20816955;28;20236;-74
2023/06/21 22:27:15;;;;;;;3.00;1.48;;;;;;;;;;20818499;28;20247;-73
2023/06/21 22:37:17;;;;;;;2.80;2.00;;;;;;;;;;20816667;28;20773;-74
2023/06/21 22:47:20;;;;;;;2.85;1.40;;;;;;;;;;20814202;28;20697;-74
2023/06/21 22:57:22;;;;;;;1.95;1.27;;;;;;;;;;20815803;28;20230;-73
2023/06/21 23:07:27;;;;;;;1.92;1.40;;;;;;;;;;20813949;28;20259;-73
2023/06/21 23:17:28;;;;;;;2.30;1.65;;;;;;;;;;20810281;28;20235;-72
2023/06/21 23:27:37;;;;;;;3.92;1.40;;;;;;;;;;20813890;28;20812;-73
2023/06/21 23:37:39;;;;;;;1.95;1.48;;;;;;;;;;20796937;28;20226;-73
2023/06/21 23:47:42;;;;;;;2.28;1.65;;;;;;;;;;20798376;28;20299;-73
2023/06/21 23:57:43;;;;;;;2.08;1.52;;;;;;;;;;20820293;28;20241;-73
